sensor_id;sensor_type;location;lat;lon;timestamp;pressure;altitude;pressure_sealevel;temperature;humidity
71109;BME280;59614;51.012;-1.648;2023-02-21T00:00:52;101335.47;;;8.91;100.00
71109;BME280;59614;51.012;-1.648;2023-02-21T00:03:36;101342.44;;;8.83;100.00
71109;BME280;59614;51.012;-1.648;2023-02-21T00:06:20;101340.59;;;8.73;100.00
71109;BME280;59614;51.012;-1.648;2023-02-21T00:09:04;101331.03;;;8.83;100.00
71109;BME280;59614;51.012;-1.648;2023-02-21T00:11:49;101331.94;;;8.88;100.00
71109;BME280;59614;51.012;-1.648;2023-02-21T00:14:32;101324.06;;;8.94;100.00
71109;BME280;59614;51.012;-1.648;2023-02-21T00:17:16;101332.78;;;8.84;100.00
71109;BME280;59614;51.012;-1.648;2023-02-21T00:20:00;101331.00;;;8.76;100.00
71109;BME280;59614;51.012;-1.648;2023-02-21T00:22:45;101325.75;;;8.76;100.00
71109;BME280;59614;51.012;-1.648;2023-02-21T00:25:29;101323.94;;;8.72;100.00
71109;BME280;59614;51.012;-1.648;2023-02-21T00:28:13;101326.59;;;8.78;100.00
71109;BME280;59614;51.012;-1.648;2023-02-21T00:30:57;101321.38;;;8.80;100.00
71109;BME280;59614;51.012;-1.648;2023-02-21T00:33:41;101324.81;;;8.70;100.00
71109;BME280;59614;51.012;-1.648;2023-02-21T00:36:25;101318.72;;;8.78;100.00
71109;BME280;59614;51.012;-1.648;2023-02-21T00:39:09;101315.22;;;8.83;100.00
71109;BME280;59614;51.012;-1.648;2023-02-21T00:41:53;101318.72;;;8.78;100.00
71109;BME280;59614;51.012;-1.648;2023-02-21T00:44:37;101311.72;;;8.82;100.00
71109;BME280;59614;51.012;-1.648;2023-02-21T00:47:21;101310.84;;;8.80;100.00
71109;BME280;59614;51.012;-1.648;2023-02-21T00:50:05;101306.41;;;8.71;100.00
71109;BME280;59614;51.012;-1.648;2023-02-21T00:52:49;101302.88;;;8.69;100.00
71109;BME280;59614;51.012;-1.648;2023-02-21T00:55:33;101310.00;;;8.86;100.00
71109;BME280;59614;51.012;-1.648;2023-02-21T00:58:20;101299.47;;;8.89;100.00
71109;BME280;59614;51.012;-1.648;2023-02-21T01:01:04;101296.84;;;8.92;100.00
71109;BME280;59614;51.012;-1.648;2023-02-21T01:03:48;101289.81;;;8.91;100.00
71109;BME280;59614;51.012;-1.648;2023-02-21T01:06:32;101287.19;;;8.94;100.00
71109;BME280;59614;51.012;-1.648;2023-02-21T01:09:16;101283.59;;;8.73;100.00
71109;BME280;59614;51.012;-1.648;2023-02-21T01:12:00;101280.94;;;8.70;100.00
71109;BME280;59614;51.012;-1.648;2023-02-21T01:14:44;101272.22;;;8.79;100.00
71109;BME280;59614;51.012;-1.648;2023-02-21T01:17:28;101266.97;;;8.79;100.00
71109;BME280;59614;51.012;-1.648;2023-02-21T01:20:12;101264.25;;;8.67;100.00
71109;BME280;59614;51.012;-1.648;2023-02-21T01:22:56;101263.47;;;8.80;100.00
71109;BME280;59614;51.012;-1.648;2023-02-21T01:25:40;101261.66;;;8.76;100.00
71109;BME280;59614;51.012;-1.648;2023-02-21T01:28:24;101258.09;;;8.64;100.00
71109;BME280;59614;51.012;-1.648;2023-02-21T01:31:08;101249.38;;;8.69;100.00
71109;BME280;59614;51.012;-1.648;2023-02-21T01:33:52;101240.59;;;8.71;100.00
71109;BME280;59614;51.012;-1.648;2023-02-21T01:36:40;101242.44;;;8.89;100.00
71109;BME280;59614;51.012;-1.648;2023-02-21T01:39:24;101233.59;;;8.78;100.00
71109;BME280;59614;51.012;-1.648;2023-02-21T01:42:09;101232.72;;;8.74;100.00
71109;BME280;59614;51.012;-1.648;2023-02-21T01:48:03;101222.09;;;8.56;100.00
71109;BME280;59614;51.012;-1.648;2023-02-21T01:50:48;101220.47;;;8.76;100.00
71109;BME280;59614;51.012;-1.648;2023-02-21T01:53:32;101210.75;;;8.69;100.00
71109;BME280;59614;51.012;-1.648;2023-02-21T01:56:16;101213.34;;;8.60;100.00
71109;BME280;59614;51.012;-1.648;2023-02-21T01:59:00;101215.13;;;8.64;100.00
71109;BME280;59614;51.012;-1.648;2023-02-21T02:01:55;101221.28;;;8.64;100.00
71109;BME280;59614;51.012;-1.648;2023-02-21T02:04:42;101212.53;;;8.72;100.00
71109;BME280;59614;51.012;-1.648;2023-02-21T02:07:30;101202.00;;;8.72;100.00
71109;BME280;59614;51.012;-1.648;2023-02-21T02:10:14;101216.88;;;8.63;100.00
71109;BME280;59614;51.012;-1.648;2023-02-21T02:13:25;101209.84;;;8.61;100.00
71109;BME280;59614;51.012;-1.648;2023-02-21T02:15:58;101211.63;;;8.62;100.00
71109;BME280;59614;51.012;-1.648;2023-02-21T02:40:26;101196.66;;;8.52;100.00
71109;BME280;59614;51.012;-1.648;2023-02-21T02:45:45;101204.56;;;8.58;100.00
71109;BME280;59614;51.012;-1.648;2023-02-21T02:48:30;101195.84;;;8.60;100.00
71109;BME280;59614;51.012;-1.648;2023-02-21T02:51:01;101195.78;;;8.54;100.00
71109;BME280;59614;51.012;-1.648;2023-02-21T02:53:29;101186.06;;;8.45;100.00
71109;BME280;59614;51.012;-1.648;2023-02-21T02:55:57;101182.66;;;8.63;100.00
71109;BME280;59614;51.012;-1.648;2023-02-21T02:58:31;101185.31;;;8.65;100.00
71109;BME280;59614;51.012;-1.648;2023-02-21T03:01:11;101183.53;;;8.61;100.00
71109;BME280;59614;51.012;-1.648;2023-02-21T03:09:15;101176.56;;;8.66;100.00
71109;BME280;59614;51.012;-1.648;2023-02-21T03:12:02;101168.63;;;8.58;100.00
71109;BME280;59614;51.012;-1.648;2023-02-21T03:14:37;101161.56;;;8.51;100.00
71109;BME280;59614;51.012;-1.648;2023-02-21T03:17:10;101158.09;;;8.55;100.00
71109;BME280;59614;51.012;-1.648;2023-02-21T03:19:39;101157.06;;;8.31;100.00
71109;BME280;59614;51.012;-1.648;2023-02-21T03:22:12;101155.41;;;8.47;100.00
71109;BME280;59614;51.012;-1.648;2023-02-21T03:24:41;101152.69;;;8.33;100.00
71109;BME280;59614;51.012;-1.648;2023-02-21T03:27:11;101148.38;;;8.46;100.00
71109;BME280;59614;51.012;-1.648;2023-02-21T03:29:38;101144.94;;;8.54;100.00
71109;BME280;59614;51.012;-1.648;2023-02-21T03:32:12;101141.41;;;8.52;100.00
71109;BME280;59614;51.012;-1.648;2023-02-21T03:34:41;101132.56;;;8.42;100.00
71109;BME280;59614;51.012;-1.648;2023-02-21T03:37:09;101139.66;;;8.50;100.00
71109;BME280;59614;51.012;-1.648;2023-02-21T03:39:35;101136.16;;;8.52;100.00
71109;BME280;59614;51.012;-1.648;2023-02-21T03:42:01;101133.50;;;8.50;100.00
71109;BME280;59614;51.012;-1.648;2023-02-21T03:44:26;101129.94;;;8.40;100.00
71109;BME280;59614;51.012;-1.648;2023-02-21T03:46:53;101123.75;;;8.35;100.00
71109;BME280;59614;51.012;-1.648;2023-02-21T03:49:18;101119.38;;;8.31;100.00
71109;BME280;59614;51.012;-1.648;2023-02-21T03:51:43;101126.41;;;8.35;100.00
71109;BME280;59614;51.012;-1.648;2023-02-21T03:54:09;101123.75;;;8.29;100.00
71109;BME280;59614;51.012;-1.648;2023-02-21T03:56:34;101122.88;;;8.30;100.00
71109;BME280;59614;51.012;-1.648;2023-02-21T03:59:00;101125.63;;;8.52;100.00
71109;BME280;59614;51.012;-1.648;2023-02-21T04:01:25;101122.91;;;8.36;100.00
71109;BME280;59614;51.012;-1.648;2023-02-21T04:03:51;101123.78;;;8.32;100.00
71109;BME280;59614;51.012;-1.648;2023-02-21T04:06:17;101130.00;;;8.48;100.00
71109;BME280;59614;51.012;-1.648;2023-02-21T04:08:42;101128.13;;;8.31;100.00
71109;BME280;59614;51.012;-1.648;2023-02-21T04:11:08;101115.00;;;8.36;100.00
71109;BME280;59614;51.012;-1.648;2023-02-21T04:13:33;101120.25;;;8.30;100.00
71109;BME280;59614;51.012;-1.648;2023-02-21T04:15:59;101111.50;;;8.37;100.00
71109;BME280;59614;51.012;-1.648;2023-02-21T04:18:24;101113.22;;;8.26;100.00
71109;BME280;59614;51.012;-1.648;2023-02-21T04:20:50;101108.84;;;8.26;100.00
71109;BME280;59614;51.012;-1.648;2023-02-21T04:23:17;101102.72;;;8.35;100.00
71109;BME280;59614;51.012;-1.648;2023-02-21T04:25:43;101105.34;;;8.33;100.00
71109;BME280;59614;51.012;-1.648;2023-02-21T04:28:08;101100.09;;;8.29;100.00
71109;BME280;59614;51.012;-1.648;2023-02-21T04:30:34;101104.44;;;8.21;100.00
71109;BME280;59614;51.012;-1.648;2023-02-21T04:32:59;101089.56;;;8.33;100.00
71109;BME280;59614;51.012;-1.648;2023-02-21T04:35:24;101089.56;;;8.29;100.00
71109;BME280;59614;51.012;-1.648;2023-02-21T04:37:50;101086.94;;;8.29;100.00
71109;BME280;59614;51.012;-1.648;2023-02-21T04:40:15;101076.41;;;8.35;100.00
71109;BME280;59614;51.012;-1.648;2023-02-21T04:42:41;101086.09;;;8.38;100.00
71109;BME280;59614;51.012;-1.648;2023-02-21T04:45:06;101076.41;;;8.27;100.00
71109;BME280;59614;51.012;-1.648;2023-02-21T04:47:32;101065.88;;;8.30;100.00
71109;BME280;59614;51.012;-1.648;2023-02-21T04:49:57;101067.63;;;8.27;100.00
71109;BME280;59614;51.012;-1.648;2023-02-21T04:52:23;101070.25;;;8.28;100.00
71109;BME280;59614;51.012;-1.648;2023-02-21T04:54:48;101071.03;;;8.06;100.00
71109;BME280;59614;51.012;-1.648;2023-02-21T04:57:15;101064.06;;;8.09;100.00
71109;BME280;59614;51.012;-1.648;2023-02-21T04:59:40;101071.06;;;8.04;100.00
71109;BME280;59614;51.012;-1.648;2023-02-21T05:02:06;101072.00;;;8.22;100.00
71109;BME280;59614;51.012;-1.648;2023-02-21T05:04:35;101081.69;;;8.29;100.00
71109;BME280;59614;51.012;-1.648;2023-02-21T05:07:02;101081.66;;;8.24;100.00
71109;BME280;59614;51.012;-1.648;2023-02-21T05:09:28;101072.00;;;8.29;100.00
71109;BME280;59614;51.012;-1.648;2023-02-21T05:11:53;101064.16;;;8.37;100.00
71109;BME280;59614;51.012;-1.648;2023-02-21T05:14:18;101051.91;;;8.42;100.00
71109;BME280;59614;51.012;-1.648;2023-02-21T05:16:44;101061.50;;;8.34;100.00
71109;BME280;59614;51.012;-1.648;2023-02-21T05:19:09;101061.50;;;8.32;100.00
71109;BME280;59614;51.012;-1.648;2023-02-21T05:21:35;101074.63;;;8.25;100.00
71109;BME280;59614;51.012;-1.648;2023-02-21T05:24:05;101064.97;;;8.16;100.00
71109;BME280;59614;51.012;-1.648;2023-02-21T05:26:35;101064.13;;;8.23;100.00
71109;BME280;59614;51.012;-1.648;2023-02-21T05:29:02;101060.63;;;8.26;100.00
71109;BME280;59614;51.012;-1.648;2023-02-21T05:31:28;101054.53;;;8.38;100.00
71109;BME280;59614;51.012;-1.648;2023-02-21T05:33:54;101067.63;;;8.21;100.00
71109;BME280;59614;51.012;-1.648;2023-02-21T05:36:19;101062.38;;;8.22;100.00
71109;BME280;59614;51.012;-1.648;2023-02-21T05:38:50;101070.19;;;8.07;100.00
71109;BME280;59614;51.012;-1.648;2023-02-21T05:41:17;101061.44;;;8.12;100.00
71109;BME280;59614;51.012;-1.648;2023-02-21T05:43:45;101064.91;;;8.07;100.00
71109;BME280;59614;51.012;-1.648;2023-02-21T05:46:29;101069.31;;;8.12;100.00
71109;BME280;59614;51.012;-1.648;2023-02-21T05:48:56;101068.41;;;8.06;100.00
71109;BME280;59614;51.012;-1.648;2023-02-21T05:51:22;101056.13;;;7.94;100.00
71109;BME280;59614;51.012;-1.648;2023-02-21T05:53:48;101052.69;;;8.10;100.00
71109;BME280;59614;51.012;-1.648;2023-02-21T05:56:15;101049.19;;;8.13;100.00
71109;BME280;59614;51.012;-1.648;2023-02-21T05:58:41;101052.63;;;7.99;100.00
71109;BME280;59614;51.012;-1.648;2023-02-21T06:01:06;101053.53;;;8.12;100.00
71109;BME280;59614;51.012;-1.648;2023-02-21T06:03:32;101048.28;;;8.06;100.00
71109;BME280;59614;51.012;-1.648;2023-02-21T06:05:57;101052.69;;;8.12;100.00
71109;BME280;59614;51.012;-1.648;2023-02-21T06:08:23;101046.53;;;8.05;100.00
71109;BME280;59614;51.012;-1.648;2023-02-21T06:10:49;101053.47;;;7.94;100.00
71109;BME280;59614;51.012;-1.648;2023-02-21T06:13:15;101047.41;;;8.04;100.00
71109;BME280;59614;51.012;-1.648;2023-02-21T06:15:40;101049.16;;;8.03;100.00
71109;BME280;59614;51.012;-1.648;2023-02-21T06:18:06;101044.81;;;8.10;100.00
71109;BME280;59614;51.012;-1.648;2023-02-21T06:20:31;101046.59;;;8.21;100.00
71109;BME280;59614;51.012;-1.648;2023-02-21T06:22:57;101043.91;;;8.03;100.00
71109;BME280;59614;51.012;-1.648;2023-02-21T06:25:22;101049.97;;;7.92;100.00
71109;BME280;59614;51.012;-1.648;2023-02-21T06:27:48;101053.47;;;7.91;100.00
71109;BME280;59614;51.012;-1.648;2023-02-21T06:30:13;101049.09;;;7.86;100.00
71109;BME280;59614;51.012;-1.648;2023-02-21T06:32:41;101043.88;;;7.99;100.00
71109;BME280;59614;51.012;-1.648;2023-02-21T06:35:06;101042.13;;;8.01;100.00
71109;BME280;59614;51.012;-1.648;2023-02-21T06:37:32;101036.00;;;8.02;100.00
71109;BME280;59614;51.012;-1.648;2023-02-21T06:39:57;101046.53;;;8.05;100.00
71109;BME280;59614;51.012;-1.648;2023-02-21T06:42:23;101046.50;;;8.02;100.00
71109;BME280;59614;51.012;-1.648;2023-02-21T06:44:49;101043.00;;;8.03;100.00
71109;BME280;59614;51.012;-1.648;2023-02-21T06:47:15;101041.19;;;7.89;100.00
71109;BME280;59614;51.012;-1.648;2023-02-21T06:49:41;101041.16;;;7.85;100.00
71109;BME280;59614;51.012;-1.648;2023-02-21T06:52:07;101039.44;;;7.92;100.00
71109;BME280;59614;51.012;-1.648;2023-02-21T06:54:33;101034.19;;;7.92;100.00
71109;BME280;59614;51.012;-1.648;2023-02-21T06:56:59;101032.47;;;7.92;100.00
71109;BME280;59614;51.012;-1.648;2023-02-21T06:59:27;101030.69;;;7.86;100.00
71109;BME280;59614;51.012;-1.648;2023-02-21T07:01:53;101028.91;;;7.88;100.00
71109;BME280;59614;51.012;-1.648;2023-02-21T07:04:18;101027.22;;;7.92;100.00
71109;BME280;59614;51.012;-1.648;2023-02-21T07:06:44;101033.25;;;7.80;100.00
71109;BME280;59614;51.012;-1.648;2023-02-21T07:09:10;101038.56;;;7.89;100.00
71109;BME280;59614;51.012;-1.648;2023-02-21T07:11:35;101020.19;;;7.93;100.00
71109;BME280;59614;51.012;-1.648;2023-02-21T07:14:01;101022.84;;;7.96;100.00
71109;BME280;59614;51.012;-1.648;2023-02-21T07:16:26;101028.97;;;7.95;100.00
71109;BME280;59614;51.012;-1.648;2023-02-21T07:18:52;101029.78;;;7.84;100.00
71109;BME280;59614;51.012;-1.648;2023-02-21T07:21:19;101033.31;;;7.93;100.00
71109;BME280;59614;51.012;-1.648;2023-02-21T07:23:45;101037.72;;;7.98;100.00
71109;BME280;59614;51.012;-1.648;2023-02-21T07:26:11;101038.53;;;7.83;100.00
71109;BME280;59614;51.012;-1.648;2023-02-21T07:28:37;101028.94;;;7.85;100.00
71109;BME280;59614;51.012;-1.648;2023-02-21T07:31:03;101029.84;;;7.98;100.00
71109;BME280;59614;51.012;-1.648;2023-02-21T07:33:28;101028.81;;;7.67;100.00
71109;BME280;59614;51.012;-1.648;2023-02-21T07:35:54;101027.13;;;7.81;100.00
71109;BME280;59614;51.012;-1.648;2023-02-21T07:38:21;101026.31;;;7.90;100.00
71109;BME280;59614;51.012;-1.648;2023-02-21T07:40:47;101027.13;;;7.81;100.00
71109;BME280;59614;51.012;-1.648;2023-02-21T07:43:12;101028.88;;;7.73;100.00
71109;BME280;59614;51.012;-1.648;2023-02-21T07:45:38;101023.72;;;7.93;100.00
71109;BME280;59614;51.012;-1.648;2023-02-21T07:48:03;101029.84;;;8.00;100.00
71109;BME280;59614;51.012;-1.648;2023-02-21T07:50:29;101036.84;;;7.96;100.00
71109;BME280;59614;51.012;-1.648;2023-02-21T07:52:54;101037.63;;;7.72;100.00
71109;BME280;59614;51.012;-1.648;2023-02-21T07:55:21;101035.94;;;7.86;100.00
71109;BME280;59614;51.012;-1.648;2023-02-21T07:57:47;101042.03;;;7.79;100.00
71109;BME280;59614;51.012;-1.648;2023-02-21T08:00:13;101041.25;;;7.99;100.00
71109;BME280;59614;51.012;-1.648;2023-02-21T08:02:39;101037.69;;;7.87;100.00
71109;BME280;59614;51.012;-1.648;2023-02-21T08:05:06;101036.75;;;7.73;100.00
71109;BME280;59614;51.012;-1.648;2023-02-21T08:07:31;101040.31;;;7.91;100.00
71109;BME280;59614;51.012;-1.648;2023-02-21T08:09:57;101044.75;;;7.98;100.00
71109;BME280;59614;51.012;-1.648;2023-02-21T08:12:22;101046.50;;;7.96;100.00
71109;BME280;59614;51.012;-1.648;2023-02-21T08:14:48;101042.97;;;8.00;100.00
71109;BME280;59614;51.012;-1.648;2023-02-21T08:17:13;101046.53;;;8.07;100.00
71109;BME280;59614;51.012;-1.648;2023-02-21T08:19:39;101052.69;;;8.10;100.00
71109;BME280;59614;51.012;-1.648;2023-02-21T08:22:04;101052.69;;;8.12;100.00
71109;BME280;59614;51.012;-1.648;2023-02-21T08:24:30;101046.38;;;7.74;100.00
71109;BME280;59614;51.012;-1.648;2023-02-21T08:26:55;101052.63;;;7.93;100.00
71109;BME280;59614;51.012;-1.648;2023-02-21T08:29:21;101049.03;;;7.80;100.00
71109;BME280;59614;51.012;-1.648;2023-02-21T08:31:47;101051.59;;;7.66;100.00
71109;BME280;59614;51.012;-1.648;2023-02-21T08:34:13;101042.88;;;7.72;100.00
71109;BME280;59614;51.012;-1.648;2023-02-21T08:36:40;101041.19;;;7.83;100.00
71109;BME280;59614;51.012;-1.648;2023-02-21T08:39:07;101046.44;;;7.86;100.00
71109;BME280;59614;51.012;-1.648;2023-02-21T08:41:37;101040.25;;;7.75;100.00
71109;BME280;59614;51.012;-1.648;2023-02-21T08:44:05;101035.13;;;8.01;100.00
71109;BME280;59614;51.012;-1.648;2023-02-21T08:46:31;101035.13;;;8.08;100.00
71109;BME280;59614;51.012;-1.648;2023-02-21T08:48:56;101043.72;;;7.65;100.00
71109;BME280;59614;51.012;-1.648;2023-02-21T08:51:29;101043.00;;;8.03;100.00
71109;BME280;59614;51.012;-1.648;2023-02-21T08:53:55;101037.75;;;7.97;100.00
71109;BME280;59614;51.012;-1.648;2023-02-21T08:56:21;101046.44;;;7.86;100.00
71109;BME280;59614;51.012;-1.648;2023-02-21T08:58:47;101045.53;;;7.81;100.00
71109;BME280;59614;51.012;-1.648;2023-02-21T09:01:13;101039.44;;;7.92;100.00
71109;BME280;59614;51.012;-1.648;2023-02-21T09:03:39;101043.03;;;8.11;100.00
71109;BME280;59614;51.012;-1.648;2023-02-21T09:06:05;101042.09;;;7.93;100.00
71109;BME280;59614;51.012;-1.648;2023-02-21T09:08:30;101041.19;;;7.89;100.00
71109;BME280;59614;51.012;-1.648;2023-02-21T09:10:56;101035.97;;;7.96;100.00
71109;BME280;59614;51.012;-1.648;2023-02-21T09:13:29;101028.16;;;8.13;100.00
71109;BME280;59614;51.012;-1.648;2023-02-21T09:15:57;101035.94;;;7.89;100.00
71109;BME280;59614;51.012;-1.648;2023-02-21T09:18:23;101033.41;;;8.08;100.00
71109;BME280;59614;51.012;-1.648;2023-02-21T09:20:49;101022.91;;;8.17;100.00
71109;BME280;59614;51.012;-1.648;2023-02-21T09:23:20;101026.44;;;8.35;100.00
71109;BME280;59614;51.012;-1.648;2023-02-21T09:25:47;101022.13;;;8.49;100.00
71109;BME280;59614;51.012;-1.648;2023-02-21T09:28:13;101026.53;;;8.64;100.00
71109;BME280;59614;51.012;-1.648;2023-02-21T09:30:39;101022.09;;;8.46;100.00
71109;BME280;59614;51.012;-1.648;2023-02-21T09:33:05;101027.41;;;8.53;100.00
71109;BME280;59614;51.012;-1.648;2023-02-21T09:35:30;101023.03;;;8.52;100.00
71109;BME280;59614;51.012;-1.648;2023-02-21T09:37:57;101021.28;;;8.69;100.00
71109;BME280;59614;51.012;-1.648;2023-02-21T09:42:52;101022.09;;;8.46;100.00
71109;BME280;59614;51.012;-1.648;2023-02-21T09:45:19;101008.94;;;8.42;100.00
71109;BME280;59614;51.012;-1.648;2023-02-21T09:47:50;101016.00;;;8.61;100.00
71109;BME280;59614;51.012;-1.648;2023-02-21T09:50:20;101009.78;;;8.21;100.00
71109;BME280;59614;51.012;-1.648;2023-02-21T09:52:47;101019.94;;;7.46;100.00
71109;BME280;59614;51.012;-1.648;2023-02-21T09:57:51;101005.31;;;8.01;100.00
71109;BME280;59614;51.012;-1.648;2023-02-21T10:00:20;101007.22;;;8.48;100.00
71109;BME280;59614;51.012;-1.648;2023-02-21T10:10:43;100994.97;;;8.74;100.00
71109;BME280;59614;51.012;-1.648;2023-02-21T10:15:53;100992.34;;;8.85;100.00
71109;BME280;59614;51.012;-1.648;2023-02-21T10:18:40;100995.88;;;8.82;100.00
71109;BME280;59614;51.012;-1.648;2023-02-21T10:21:21;100987.97;;;8.82;100.00
71109;BME280;59614;51.012;-1.648;2023-02-21T10:23:50;100983.56;;;8.89;100.00
71109;BME280;59614;51.012;-1.648;2023-02-21T10:26:25;100994.09;;;8.95;100.00
71109;BME280;59614;51.012;-1.648;2023-02-21T10:28:52;100986.19;;;8.70;100.00
71109;BME280;59614;51.012;-1.648;2023-02-21T10:31:23;100988.84;;;8.81;100.00
71109;BME280;59614;51.012;-1.648;2023-02-21T10:33:54;100980.06;;;8.74;100.00
71109;BME280;59614;51.012;-1.648;2023-02-21T10:36:21;100978.13;;;7.93;100.00
71109;BME280;59614;51.012;-1.648;2023-02-21T10:39:10;100985.31;;;8.68;100.00
71109;BME280;59614;51.012;-1.648;2023-02-21T10:41:40;100981.78;;;8.57;100.00
71109;BME280;59614;51.012;-1.648;2023-02-21T10:44:17;100982.56;;;8.15;100.00
71109;BME280;59614;51.012;-1.648;2023-02-21T10:46:53;100987.84;;;8.29;100.00
71109;BME280;59614;51.012;-1.648;2023-02-21T10:49:33;100972.91;;;8.11;100.00
71109;BME280;59614;51.012;-1.648;2023-02-21T10:52:14;100977.34;;;8.34;100.00
71109;BME280;59614;51.012;-1.648;2023-02-21T10:54:42;100979.91;;;8.03;100.00
71109;BME280;59614;51.012;-1.648;2023-02-21T10:57:23;100972.88;;;7.93;100.00
71109;BME280;59614;51.012;-1.648;2023-02-21T10:59:49;100970.34;;;8.36;100.00
71109;BME280;59614;51.012;-1.648;2023-02-21T11:02:28;100966.78;;;8.04;100.00
71109;BME280;59614;51.012;-1.648;2023-02-21T11:04:55;100964.13;;;7.94;100.00
71109;BME280;59614;51.012;-1.648;2023-02-21T11:07:31;100959.81;;;8.17;100.00
71109;BME280;59614;51.012;-1.648;2023-02-21T11:09:57;100965.94;;;8.10;100.00
71109;BME280;59614;51.012;-1.648;2023-02-21T11:12:25;100971.16;;;8.07;100.00
71109;BME280;59614;51.012;-1.648;2023-02-21T11:17:20;100970.16;;;7.66;100.00
71109;BME280;59614;51.012;-1.648;2023-02-21T11:20:02;100961.50;;;8.03;100.00
71109;BME280;59614;51.012;-1.648;2023-02-21T11:25:02;100958.91;;;8.12;100.00
71109;BME280;59614;51.012;-1.648;2023-02-21T11:27:31;100964.28;;;8.53;100.00
71109;BME280;59614;51.012;-1.648;2023-02-21T11:29:57;100958.13;;;8.60;100.00
71109;BME280;59614;51.012;-1.648;2023-02-21T11:32:36;100953.75;;;8.53;100.00
71109;BME280;59614;51.012;-1.648;2023-02-21T11:37:54;100951.09;;;8.67;100.00
71109;BME280;59614;51.012;-1.648;2023-02-21T11:40:24;100949.34;;;8.53;100.00
71109;BME280;59614;51.012;-1.648;2023-02-21T11:42:49;100944.91;;;8.35;100.00
71109;BME280;59614;51.012;-1.648;2023-02-21T11:46:04;100947.59;;;8.55;100.00
71109;BME280;59614;51.012;-1.648;2023-02-21T11:48:32;100949.16;;;7.69;100.00
71109;BME280;59614;51.012;-1.648;2023-02-21T11:51:05;100946.63;;;8.05;100.00
71109;BME280;59614;51.012;-1.648;2023-02-21T11:53:38;100939.63;;;8.07;100.00
71109;BME280;59614;51.012;-1.648;2023-02-21T11:56:35;100935.28;;;8.45;100.00
71109;BME280;59614;51.012;-1.648;2023-02-21T12:01:53;100933.53;;;8.98;100.00
71109;BME280;59614;51.012;-1.648;2023-02-21T12:12:01;100925.41;;;7.49;100.00
71109;BME280;59614;51.012;-1.648;2023-02-21T12:33:38;100896.69;;;8.05;100.00
71109;BME280;59614;51.012;-1.648;2023-02-21T12:36:25;100892.28;;;7.90;100.00
71109;BME280;59614;51.012;-1.648;2023-02-21T12:39:10;100883.56;;;8.30;100.00
71109;BME280;59614;51.012;-1.648;2023-02-21T12:41:48;100883.53;;;8.00;100.00
71109;BME280;59614;51.012;-1.648;2023-02-21T12:47:18;100868.63;;;7.90;100.00
71109;BME280;59614;51.012;-1.648;2023-02-21T12:52:53;100872.16;;;8.59;99.30
71109;BME280;59614;51.012;-1.648;2023-02-21T12:55:31;100863.41;;;8.24;98.40
71109;BME280;59614;51.012;-1.648;2023-02-21T13:01:01;100846.69;;;8.79;96.77
71109;BME280;59614;51.012;-1.648;2023-02-21T13:06:15;100843.25;;;8.22;97.29
71109;BME280;59614;51.012;-1.648;2023-02-21T13:09:14;100846.72;;;8.76;96.24
71109;BME280;59614;51.012;-1.648;2023-02-21T13:11:40;100837.97;;;8.31;95.94
71109;BME280;59614;51.012;-1.648;2023-02-21T13:14:16;100829.03;;;9.16;93.80
71109;BME280;59614;51.012;-1.648;2023-02-21T13:16:41;100827.34;;;9.04;92.82
71109;BME280;59614;51.012;-1.648;2023-02-21T13:19:10;100823.81;;;9.09;91.35
71109;BME280;59614;51.012;-1.648;2023-02-21T13:25:19;100819.34;;;9.19;91.56
71109;BME280;59614;51.012;-1.648;2023-02-21T13:32:58;100801.91;;;8.95;92.25
71109;BME280;59614;51.012;-1.648;2023-02-21T13:35:29;100800.28;;;8.33;94.63
71109;BME280;59614;51.012;-1.648;2023-02-21T13:37:55;100796.75;;;8.42;93.20
71109;BME280;59614;51.012;-1.648;2023-02-21T13:43:09;100788.66;;;9.14;91.75
71109;BME280;59614;51.012;-1.648;2023-02-21T13:45:36;100783.53;;;8.89;90.91
71109;BME280;59614;51.012;-1.648;2023-02-21T13:55:36;100766.91;;;8.46;93.64
71109;BME280;59614;51.012;-1.648;2023-02-21T14:13:45;100741.56;;;8.25;90.86
71109;BME280;59614;51.012;-1.648;2023-02-21T14:21:08;100725.75;;;8.55;91.13
71109;BME280;59614;51.012;-1.648;2023-02-21T14:23:45;100724.88;;;8.34;91.36
71109;BME280;59614;51.012;-1.648;2023-02-21T14:51:17;100688.06;;;8.28;91.11
71109;BME280;59614;51.012;-1.648;2023-02-21T15:02:51;100686.13;;;8.87;89.38
71109;BME280;59614;51.012;-1.648;2023-02-21T15:07:57;100680.94;;;8.69;89.66
71109;BME280;59614;51.012;-1.648;2023-02-21T15:10:27;100679.13;;;8.81;87.81
71109;BME280;59614;51.012;-1.648;2023-02-21T15:12:55;100673.94;;;8.71;89.68
71109;BME280;59614;51.012;-1.648;2023-02-21T15:18:01;100672.03;;;8.96;88.89
71109;BME280;59614;51.012;-1.648;2023-02-21T15:20:28;100667.84;;;8.53;88.22
71109;BME280;59614;51.012;-1.648;2023-02-21T15:23:15;100662.56;;;8.61;87.95
71109;BME280;59614;51.012;-1.648;2023-02-21T15:25:52;100664.25;;;8.77;86.98
71109;BME280;59614;51.012;-1.648;2023-02-21T15:28:38;100665.81;;;9.06;85.25
71109;BME280;59614;51.012;-1.648;2023-02-21T15:31:07;100655.59;;;8.35;88.48
71109;BME280;59614;51.012;-1.648;2023-02-21T15:33:38;100662.53;;;8.67;88.65
71109;BME280;59614;51.012;-1.648;2023-02-21T15:36:14;100650.28;;;8.63;89.20
71109;BME280;59614;51.012;-1.648;2023-02-21T15:44:21;100645.16;;;8.16;89.15
71109;BME280;59614;51.012;-1.648;2023-02-21T15:49:30;100640.75;;;8.17;90.35
71109;BME280;59614;51.012;-1.648;2023-02-21T15:52:01;100653.75;;;8.70;88.62
71109;BME280;59614;51.012;-1.648;2023-02-21T15:54:37;100640.69;;;8.40;89.01
71109;BME280;59614;51.012;-1.648;2023-02-21T15:57:17;100637.16;;;8.46;88.12
71109;BME280;59614;51.012;-1.648;2023-02-21T15:59:44;100640.81;;;8.01;88.68
71109;BME280;59614;51.012;-1.648;2023-02-21T16:02:21;100645.19;;;8.01;90.28
71109;BME280;59614;51.012;-1.648;2023-02-21T16:04:49;100638.03;;;8.46;88.00
71109;BME280;59614;51.012;-1.648;2023-02-21T16:07:35;100634.59;;;8.37;88.92